sensor_id;sensor_type;location;lat;lon;timestamp;temperature;humidity
7232;DHT22;3657;49.630;11.018;2023-04-05T00:00:54;2.90;99.90
7232;DHT22;3657;49.630;11.018;2023-04-05T00:03:21;2.90;99.90
7232;DHT22;3657;49.630;11.018;2023-04-05T00:05:48;2.90;99.90
7232;DHT22;3657;49.630;11.018;2023-04-05T00:08:15;2.90;99.90
7232;DHT22;3657;49.630;11.018;2023-04-05T00:10:49;2.80;99.90
7232;DHT22;3657;49.630;11.018;2023-04-05T00:13:16;2.80;99.90
7232;DHT22;3657;49.630;11.018;2023-04-05T00:15:43;2.80;99.90
7232;DHT22;3657;49.630;11.018;2023-04-05T00:18:10;2.80;99.90
7232;DHT22;3657;49.630;11.018;2023-04-05T00:20:46;2.80;99.90
7232;DHT22;3657;49.630;11.018;2023-04-05T00:23:13;2.70;99.90
7232;DHT22;3657;49.630;11.018;2023-04-05T00:25:41;2.70;99.90
7232;DHT22;3657;49.630;11.018;2023-04-05T00:28:09;2.70;99.90
7232;DHT22;3657;49.630;11.018;2023-04-05T00:30:36;2.70;99.90
7232;DHT22;3657;49.630;11.018;2023-04-05T00:33:02;2.60;99.90
7232;DHT22;3657;49.630;11.018;2023-04-05T00:35:29;2.70;99.90
7232;DHT22;3657;49.630;11.018;2023-04-05T00:37:56;2.60;99.90
7232;DHT22;3657;49.630;11.018;2023-04-05T00:40:23;2.60;99.90
7232;DHT22;3657;49.630;11.018;2023-04-05T00:42:50;2.60;99.90
7232;DHT22;3657;49.630;11.018;2023-04-05T00:45:18;2.60;99.90
7232;DHT22;3657;49.630;11.018;2023-04-05T00:47:45;2.60;99.90
7232;DHT22;3657;49.630;11.018;2023-04-05T00:50:11;2.50;99.90
7232;DHT22;3657;49.630;11.018;2023-04-05T00:52:39;2.50;99.90
7232;DHT22;3657;49.630;11.018;2023-04-05T00:55:06;2.50;99.90
7232;DHT22;3657;49.630;11.018;2023-04-05T00:57:34;2.50;99.90
7232;DHT22;3657;49.630;11.018;2023-04-05T01:00:05;2.50;99.90
7232;DHT22;3657;49.630;11.018;2023-04-05T01:02:41;2.50;99.90
7232;DHT22;3657;49.630;11.018;2023-04-05T01:05:16;2.40;99.90
7232;DHT22;3657;49.630;11.018;2023-04-05T01:07:51;2.40;99.90
7232;DHT22;3657;49.630;11.018;2023-04-05T01:10:20;2.40;99.90
7232;DHT22;3657;49.630;11.018;2023-04-05T01:12:48;2.40;99.90
7232;DHT22;3657;49.630;11.018;2023-04-05T01:15:14;2.40;99.90
7232;DHT22;3657;49.630;11.018;2023-04-05T01:17:44;2.40;99.90
7232;DHT22;3657;49.630;11.018;2023-04-05T01:20:11;2.40;99.90
7232;DHT22;3657;49.630;11.018;2023-04-05T01:25:58;2.30;99.90
7232;DHT22;3657;49.630;11.018;2023-04-05T01:28:58;2.30;99.90
7232;DHT22;3657;49.630;11.018;2023-04-05T01:31:38;2.30;99.90
7232;DHT22;3657;49.630;11.018;2023-04-05T01:34:14;2.30;99.90
7232;DHT22;3657;49.630;11.018;2023-04-05T01:36:49;2.20;99.90
7232;DHT22;3657;49.630;11.018;2023-04-05T01:39:17;2.20;99.90
7232;DHT22;3657;49.630;11.018;2023-04-05T01:41:45;2.20;99.90
7232;DHT22;3657;49.630;11.018;2023-04-05T01:44:12;2.20;99.90
7232;DHT22;3657;49.630;11.018;2023-04-05T01:46:40;2.20;99.90
7232;DHT22;3657;49.630;11.018;2023-04-05T01:49:07;2.10;99.90
7232;DHT22;3657;49.630;11.018;2023-04-05T01:51:33;2.10;99.90
7232;DHT22;3657;49.630;11.018;2023-04-05T01:54:00;2.10;99.90
7232;DHT22;3657;49.630;11.018;2023-04-05T01:56:27;2.10;99.90
7232;DHT22;3657;49.630;11.018;2023-04-05T01:58:54;2.10;99.90
7232;DHT22;3657;49.630;11.018;2023-04-05T02:01:20;2.10;99.90
7232;DHT22;3657;49.630;11.018;2023-04-05T02:03:48;2.10;99.90
7232;DHT22;3657;49.630;11.018;2023-04-05T02:06:15;2.10;99.90
7232;DHT22;3657;49.630;11.018;2023-04-05T02:08:42;2.00;99.90
7232;DHT22;3657;49.630;11.018;2023-04-05T02:11:08;2.10;99.90
7232;DHT22;3657;49.630;11.018;2023-04-05T02:13:35;2.00;99.90
7232;DHT22;3657;49.630;11.018;2023-04-05T02:16:02;2.00;99.90
7232;DHT22;3657;49.630;11.018;2023-04-05T02:18:28;2.00;99.90
7232;DHT22;3657;49.630;11.018;2023-04-05T02:21:02;2.00;99.90
7232;DHT22;3657;49.630;11.018;2023-04-05T02:23:29;2.00;99.90
7232;DHT22;3657;49.630;11.018;2023-04-05T02:25:56;1.90;99.90
7232;DHT22;3657;49.630;11.018;2023-04-05T02:28:23;1.90;99.90
7232;DHT22;3657;49.630;11.018;2023-04-05T02:30:49;1.90;99.90
7232;DHT22;3657;49.630;11.018;2023-04-05T02:33:16;1.90;99.90
7232;DHT22;3657;49.630;11.018;2023-04-05T02:35:43;1.90;99.90
7232;DHT22;3657;49.630;11.018;2023-04-05T02:38:11;1.90;99.90
7232;DHT22;3657;49.630;11.018;2023-04-05T02:40:37;1.80;99.90
7232;DHT22;3657;49.630;11.018;2023-04-05T02:43:06;1.80;99.90
7232;DHT22;3657;49.630;11.018;2023-04-05T02:45:33;1.80;99.90
7232;DHT22;3657;49.630;11.018;2023-04-05T02:48:00;1.80;99.90
7232;DHT22;3657;49.630;11.018;2023-04-05T02:50:26;1.80;99.90
7232;DHT22;3657;49.630;11.018;2023-04-05T02:52:53;1.80;99.90
7232;DHT22;3657;49.630;11.018;2023-04-05T02:55:21;1.80;99.90
7232;DHT22;3657;49.630;11.018;2023-04-05T02:57:48;1.70;99.90
7232;DHT22;3657;49.630;11.018;2023-04-05T03:00:15;1.70;99.90
7232;DHT22;3657;49.630;11.018;2023-04-05T03:02:43;1.70;99.90
7232;DHT22;3657;49.630;11.018;2023-04-05T03:05:09;1.70;99.90
7232;DHT22;3657;49.630;11.018;2023-04-05T03:07:38;1.70;99.90
7232;DHT22;3657;49.630;11.018;2023-04-05T03:10:07;1.70;99.90
7232;DHT22;3657;49.630;11.018;2023-04-05T03:12:36;1.70;99.90
7232;DHT22;3657;49.630;11.018;2023-04-05T03:15:03;1.60;99.90
7232;DHT22;3657;49.630;11.018;2023-04-05T03:17:29;1.60;99.90
7232;DHT22;3657;49.630;11.018;2023-04-05T03:19:56;1.60;99.90
7232;DHT22;3657;49.630;11.018;2023-04-05T03:22:25;1.60;99.90
7232;DHT22;3657;49.630;11.018;2023-04-05T03:24:51;1.60;99.90
7232;DHT22;3657;49.630;11.018;2023-04-05T03:27:18;1.60;99.90
7232;DHT22;3657;49.630;11.018;2023-04-05T03:29:47;1.60;99.90
7232;DHT22;3657;49.630;11.018;2023-04-05T03:32:14;1.50;99.90
7232;DHT22;3657;49.630;11.018;2023-04-05T03:34:41;1.50;99.90
7232;DHT22;3657;49.630;11.018;2023-04-05T03:37:08;1.50;99.90
7232;DHT22;3657;49.630;11.018;2023-04-05T03:39:35;1.50;99.90
7232;DHT22;3657;49.630;11.018;2023-04-05T03:42:01;1.50;99.90
7232;DHT22;3657;49.630;11.018;2023-04-05T03:44:28;1.40;99.90
7232;DHT22;3657;49.630;11.018;2023-04-05T03:46:56;1.40;99.90
7232;DHT22;3657;49.630;11.018;2023-04-05T03:49:23;1.40;99.90
7232;DHT22;3657;49.630;11.018;2023-04-05T03:51:50;1.40;99.90
7232;DHT22;3657;49.630;11.018;2023-04-05T03:54:17;1.40;99.90
7232;DHT22;3657;49.630;11.018;2023-04-05T03:56:44;1.40;99.90
7232;DHT22;3657;49.630;11.018;2023-04-05T03:59:10;1.40;99.90
7232;DHT22;3657;49.630;11.018;2023-04-05T04:01:37;1.40;99.90
7232;DHT22;3657;49.630;11.018;2023-04-05T04:04:05;1.40;99.90
7232;DHT22;3657;49.630;11.018;2023-04-05T04:06:31;1.40;99.90
7232;DHT22;3657;49.630;11.018;2023-04-05T04:08:58;1.30;99.90
7232;DHT22;3657;49.630;11.018;2023-04-05T04:11:25;1.30;99.90
7232;DHT22;3657;49.630;11.018;2023-04-05T04:13:51;1.30;99.90
7232;DHT22;3657;49.630;11.018;2023-04-05T04:16:18;1.30;99.90
7232;DHT22;3657;49.630;11.018;2023-04-05T04:18:45;1.30;99.90
7232;DHT22;3657;49.630;11.018;2023-04-05T04:21:13;1.30;99.90
7232;DHT22;3657;49.630;11.018;2023-04-05T04:23:41;1.30;99.90
7232;DHT22;3657;49.630;11.018;2023-04-05T04:26:10;1.20;99.90
7232;DHT22;3657;49.630;11.018;2023-04-05T04:28:38;1.20;99.90
7232;DHT22;3657;49.630;11.018;2023-04-05T04:31:10;1.20;99.90
7232;DHT22;3657;49.630;11.018;2023-04-05T04:33:37;1.20;99.90
7232;DHT22;3657;49.630;11.018;2023-04-05T04:36:08;1.20;99.90
7232;DHT22;3657;49.630;11.018;2023-04-05T04:38:39;1.10;99.90
7232;DHT22;3657;49.630;11.018;2023-04-05T04:41:08;1.10;99.90
7232;DHT22;3657;49.630;11.018;2023-04-05T04:43:35;1.10;99.90
7232;DHT22;3657;49.630;11.018;2023-04-05T04:46:08;1.10;99.90
7232;DHT22;3657;49.630;11.018;2023-04-05T04:48:39;1.10;99.90
7232;DHT22;3657;49.630;11.018;2023-04-05T04:51:07;1.10;99.90
7232;DHT22;3657;49.630;11.018;2023-04-05T04:53:33;1.00;99.90
7232;DHT22;3657;49.630;11.018;2023-04-05T04:56:05;1.00;99.90
7232;DHT22;3657;49.630;11.018;2023-04-05T04:58:31;1.00;99.90
7232;DHT22;3657;49.630;11.018;2023-04-05T05:00:58;1.00;99.90
7232;DHT22;3657;49.630;11.018;2023-04-05T05:03:25;1.00;99.90
7232;DHT22;3657;49.630;11.018;2023-04-05T05:05:52;1.00;99.90
7232;DHT22;3657;49.630;11.018;2023-04-05T05:08:19;1.00;99.90
7232;DHT22;3657;49.630;11.018;2023-04-05T05:10:49;1.00;99.90
7232;DHT22;3657;49.630;11.018;2023-04-05T05:13:17;1.00;99.90
7232;DHT22;3657;49.630;11.018;2023-04-05T05:15:44;1.00;99.90
7232;DHT22;3657;49.630;11.018;2023-04-05T05:18:11;1.00;99.90
7232;DHT22;3657;49.630;11.018;2023-04-05T05:20:37;1.00;99.90
7232;DHT22;3657;49.630;11.018;2023-04-05T05:23:05;1.00;99.90
7232;DHT22;3657;49.630;11.018;2023-04-05T05:25:32;1.00;99.90
7232;DHT22;3657;49.630;11.018;2023-04-05T05:27:58;0.90;99.90
7232;DHT22;3657;49.630;11.018;2023-04-05T05:30:26;0.90;99.90
7232;DHT22;3657;49.630;11.018;2023-04-05T05:32:53;0.90;99.90
7232;DHT22;3657;49.630;11.018;2023-04-05T05:35:22;0.90;99.90
7232;DHT22;3657;49.630;11.018;2023-04-05T05:37:48;0.90;99.90
7232;DHT22;3657;49.630;11.018;2023-04-05T05:40:15;0.90;99.90
7232;DHT22;3657;49.630;11.018;2023-04-05T05:42:42;0.90;99.90
7232;DHT22;3657;49.630;11.018;2023-04-05T05:45:09;0.90;99.90
7232;DHT22;3657;49.630;11.018;2023-04-05T05:47:37;0.90;99.90
7232;DHT22;3657;49.630;11.018;2023-04-05T05:50:05;0.90;99.90
7232;DHT22;3657;49.630;11.018;2023-04-05T05:52:33;1.00;99.90
7232;DHT22;3657;49.630;11.018;2023-04-05T05:55:00;1.00;99.90
7232;DHT22;3657;49.630;11.018;2023-04-05T05:57:27;1.00;99.90
7232;DHT22;3657;49.630;11.018;2023-04-05T05:59:53;1.00;99.90
7232;DHT22;3657;49.630;11.018;2023-04-05T06:02:20;1.10;99.90
7232;DHT22;3657;49.630;11.018;2023-04-05T06:04:48;1.00;99.90
7232;DHT22;3657;49.630;11.018;2023-04-05T06:07:15;1.10;99.90
7232;DHT22;3657;49.630;11.018;2023-04-05T06:09:41;1.10;99.90
7232;DHT22;3657;49.630;11.018;2023-04-05T06:12:09;1.10;99.90
7232;DHT22;3657;49.630;11.018;2023-04-05T06:14:36;1.20;99.90
7232;DHT22;3657;49.630;11.018;2023-04-05T06:17:02;1.30;99.90
7232;DHT22;3657;49.630;11.018;2023-04-05T06:19:29;1.50;99.90
7232;DHT22;3657;49.630;11.018;2023-04-05T06:21:57;1.60;99.90
7232;DHT22;3657;49.630;11.018;2023-04-05T06:24:25;1.70;99.90
7232;DHT22;3657;49.630;11.018;2023-04-05T06:26:56;1.80;99.90
7232;DHT22;3657;49.630;11.018;2023-04-05T06:29:22;1.80;99.90
7232;DHT22;3657;49.630;11.018;2023-04-05T06:31:49;1.70;99.90
7232;DHT22;3657;49.630;11.018;2023-04-05T06:34:16;1.70;99.90
7232;DHT22;3657;49.630;11.018;2023-04-05T06:36:43;1.60;99.90
7232;DHT22;3657;49.630;11.018;2023-04-05T06:39:12;1.50;99.90
7232;DHT22;3657;49.630;11.018;2023-04-05T06:41:39;1.50;99.90
7232;DHT22;3657;49.630;11.018;2023-04-05T06:44:05;1.50;99.90
7232;DHT22;3657;49.630;11.018;2023-04-05T06:46:32;1.50;99.90
7232;DHT22;3657;49.630;11.018;2023-04-05T06:48:59;1.50;99.90
7232;DHT22;3657;49.630;11.018;2023-04-05T06:51:25;1.50;99.90
7232;DHT22;3657;49.630;11.018;2023-04-05T06:53:53;1.50;99.90
7232;DHT22;3657;49.630;11.018;2023-04-05T06:56:21;1.60;99.90
7232;DHT22;3657;49.630;11.018;2023-04-05T06:58:48;1.60;99.90
7232;DHT22;3657;49.630;11.018;2023-04-05T07:01:16;1.70;99.90
7232;DHT22;3657;49.630;11.018;2023-04-05T07:03:42;1.80;99.90
7232;DHT22;3657;49.630;11.018;2023-04-05T07:06:09;1.90;99.90
7232;DHT22;3657;49.630;11.018;2023-04-05T07:08:36;2.20;99.90
7232;DHT22;3657;49.630;11.018;2023-04-05T07:11:03;2.50;99.90
7232;DHT22;3657;49.630;11.018;2023-04-05T07:13:31;2.70;99.90
7232;DHT22;3657;49.630;11.018;2023-04-05T07:16:01;2.90;99.90
7232;DHT22;3657;49.630;11.018;2023-04-05T07:18:28;3.20;99.70
7232;DHT22;3657;49.630;11.018;2023-04-05T07:20:56;3.40;99.60
7232;DHT22;3657;49.630;11.018;2023-04-05T07:23:26;3.60;99.40
7232;DHT22;3657;49.630;11.018;2023-04-05T07:25:53;3.90;99.00
7232;DHT22;3657;49.630;11.018;2023-04-05T07:28:20;3.90;99.00
7232;DHT22;3657;49.630;11.018;2023-04-05T07:30:48;4.10;98.60
7232;DHT22;3657;49.630;11.018;2023-04-05T07:33:14;4.10;98.70
7232;DHT22;3657;49.630;11.018;2023-04-05T07:35:41;4.10;98.60
7232;DHT22;3657;49.630;11.018;2023-04-05T07:38:08;4.10;98.70
7232;DHT22;3657;49.630;11.018;2023-04-05T07:40:35;4.10;98.70
7232;DHT22;3657;49.630;11.018;2023-04-05T07:43:02;4.10;98.40
7232;DHT22;3657;49.630;11.018;2023-04-05T07:45:29;4.20;98.60
7232;DHT22;3657;49.630;11.018;2023-04-05T07:47:57;4.20;98.90
7232;DHT22;3657;49.630;11.018;2023-04-05T07:50:24;4.40;98.60
7232;DHT22;3657;49.630;11.018;2023-04-05T07:52:51;4.60;98.30
7232;DHT22;3657;49.630;11.018;2023-04-05T07:55:18;5.00;98.20
7232;DHT22;3657;49.630;11.018;2023-04-05T07:57:44;5.10;97.50
7232;DHT22;3657;49.630;11.018;2023-04-05T08:00:12;5.30;96.80
7232;DHT22;3657;49.630;11.018;2023-04-05T08:02:40;5.50;97.20
7232;DHT22;3657;49.630;11.018;2023-04-05T08:05:08;5.70;93.80
7232;DHT22;3657;49.630;11.018;2023-04-05T08:07:35;5.70;93.40
7232;DHT22;3657;49.630;11.018;2023-04-05T08:10:01;5.80;91.80
7232;DHT22;3657;49.630;11.018;2023-04-05T08:12:29;5.60;92.00
7232;DHT22;3657;49.630;11.018;2023-04-05T08:14:56;5.60;92.90
7232;DHT22;3657;49.630;11.018;2023-04-05T08:17:23;5.70;92.40
7232;DHT22;3657;49.630;11.018;2023-04-05T08:19:51;5.70;92.00
7232;DHT22;3657;49.630;11.018;2023-04-05T08:22:19;5.80;92.40
7232;DHT22;3657;49.630;11.018;2023-04-05T08:24:46;5.80;90.80
7232;DHT22;3657;49.630;11.018;2023-04-05T08:27:12;6.00;91.90
7232;DHT22;3657;49.630;11.018;2023-04-05T08:29:40;6.00;89.20
7232;DHT22;3657;49.630;11.018;2023-04-05T08:32:06;6.10;90.40
7232;DHT22;3657;49.630;11.018;2023-04-05T08:34:33;6.20;90.30
7232;DHT22;3657;49.630;11.018;2023-04-05T08:37:00;6.20;90.60
7232;DHT22;3657;49.630;11.018;2023-04-05T08:39:28;6.40;87.80
7232;DHT22;3657;49.630;11.018;2023-04-05T08:42:02;6.60;87.60
7232;DHT22;3657;49.630;11.018;2023-04-05T08:44:29;6.50;87.00
7232;DHT22;3657;49.630;11.018;2023-04-05T08:46:57;6.70;90.60
7232;DHT22;3657;49.630;11.018;2023-04-05T08:49:24;6.70;86.20
7232;DHT22;3657;49.630;11.018;2023-04-05T08:51:52;6.70;85.00
7232;DHT22;3657;49.630;11.018;2023-04-05T08:54:19;6.90;86.70
7232;DHT22;3657;49.630;11.018;2023-04-05T08:56:47;7.00;86.20
7232;DHT22;3657;49.630;11.018;2023-04-05T08:59:15;7.10;86.80
7232;DHT22;3657;49.630;11.018;2023-04-05T09:01:43;7.30;84.20
7232;DHT22;3657;49.630;11.018;2023-04-05T09:04:15;7.30;85.20
7232;DHT22;3657;49.630;11.018;2023-04-05T09:06:43;7.40;87.40
7232;DHT22;3657;49.630;11.018;2023-04-05T09:09:10;7.70;90.40
7232;DHT22;3657;49.630;11.018;2023-04-05T09:11:38;7.70;81.50
7232;DHT22;3657;49.630;11.018;2023-04-05T09:14:07;8.00;83.50
7232;DHT22;3657;49.630;11.018;2023-04-05T09:16:35;8.10;84.40
7232;DHT22;3657;49.630;11.018;2023-04-05T09:19:02;8.30;84.20
7232;DHT22;3657;49.630;11.018;2023-04-05T09:21:29;8.30;79.40
7232;DHT22;3657;49.630;11.018;2023-04-05T09:23:56;8.30;79.00
7232;DHT22;3657;49.630;11.018;2023-04-05T09:26:23;8.20;74.30
7232;DHT22;3657;49.630;11.018;2023-04-05T09:28:51;8.00;80.80
7232;DHT22;3657;49.630;11.018;2023-04-05T09:31:33;8.10;85.60
7232;DHT22;3657;49.630;11.018;2023-04-05T09:34:02;8.30;82.40
7232;DHT22;3657;49.630;11.018;2023-04-05T09:36:29;8.80;82.40
7232;DHT22;3657;49.630;11.018;2023-04-05T09:39:04;9.30;86.40
7232;DHT22;3657;49.630;11.018;2023-04-05T09:41:32;9.20;90.50
7232;DHT22;3657;49.630;11.018;2023-04-05T09:43:59;8.90;94.20
7232;DHT22;3657;49.630;11.018;2023-04-05T09:46:30;8.80;92.10
7232;DHT22;3657;49.630;11.018;2023-04-05T09:48:59;9.00;87.50
7232;DHT22;3657;49.630;11.018;2023-04-05T09:51:32;9.00;88.80
7232;DHT22;3657;49.630;11.018;2023-04-05T09:54:00;8.70;93.60
7232;DHT22;3657;49.630;11.018;2023-04-05T09:56:29;8.50;89.00
7232;DHT22;3657;49.630;11.018;2023-04-05T09:58:59;8.20;91.40
7232;DHT22;3657;49.630;11.018;2023-04-05T10:01:27;8.10;93.30
7232;DHT22;3657;49.630;11.018;2023-04-05T10:03:56;8.30;96.70
7232;DHT22;3657;49.630;11.018;2023-04-05T10:06:33;8.50;94.60
7232;DHT22;3657;49.630;11.018;2023-04-05T10:09:01;9.00;93.10
7232;DHT22;3657;49.630;11.018;2023-04-05T10:11:29;9.40;82.20
7232;DHT22;3657;49.630;11.018;2023-04-05T10:13:56;9.60;91.20
7232;DHT22;3657;49.630;11.018;2023-04-05T10:16:27;9.80;94.90
7232;DHT22;3657;49.630;11.018;2023-04-05T10:18:55;9.60;88.20
7232;DHT22;3657;49.630;11.018;2023-04-05T10:21:22;9.30;91.90
7232;DHT22;3657;49.630;11.018;2023-04-05T10:24:00;8.80;97.30
7232;DHT22;3657;49.630;11.018;2023-04-05T10:26:36;8.50;95.40
7232;DHT22;3657;49.630;11.018;2023-04-05T10:29:11;8.40;97.60
7232;DHT22;3657;49.630;11.018;2023-04-05T10:31:46;8.30;99.90
7232;DHT22;3657;49.630;11.018;2023-04-05T10:34:23;8.40;99.90
7232;DHT22;3657;49.630;11.018;2023-04-05T10:36:56;8.40;99.90
7232;DHT22;3657;49.630;11.018;2023-04-05T10:39:26;8.40;99.90
7232;DHT22;3657;49.630;11.018;2023-04-05T10:41:56;8.50;99.90
7232;DHT22;3657;49.630;11.018;2023-04-05T10:44:25;8.50;99.90
7232;DHT22;3657;49.630;11.018;2023-04-05T10:46:52;8.50;99.90
7232;DHT22;3657;49.630;11.018;2023-04-05T10:49:21;8.50;97.30
7232;DHT22;3657;49.630;11.018;2023-04-05T10:51:52;8.60;99.50
7232;DHT22;3657;49.630;11.018;2023-04-05T10:54:19;9.00;99.90
7232;DHT22;3657;49.630;11.018;2023-04-05T10:56:48;9.40;97.50
7232;DHT22;3657;49.630;11.018;2023-04-05T10:59:15;9.90;98.80
7232;DHT22;3657;49.630;11.018;2023-04-05T11:04:11;10.40;96.80
7232;DHT22;3657;49.630;11.018;2023-04-05T11:06:38;10.60;98.70
7232;DHT22;3657;49.630;11.018;2023-04-05T11:09:10;10.60;95.40
7232;DHT22;3657;49.630;11.018;2023-04-05T11:11:38;10.60;98.00
7232;DHT22;3657;49.630;11.018;2023-04-05T11:14:18;10.80;96.60
7232;DHT22;3657;49.630;11.018;2023-04-05T11:16:47;10.80;84.60
7232;DHT22;3657;49.630;11.018;2023-04-05T11:19:15;10.80;91.50
7232;DHT22;3657;49.630;11.018;2023-04-05T11:21:42;11.00;94.10
7232;DHT22;3657;49.630;11.018;2023-04-05T11:24:11;11.40;91.40
7232;DHT22;3657;49.630;11.018;2023-04-05T11:26:53;11.40;93.90
7232;DHT22;3657;49.630;11.018;2023-04-05T11:29:45;11.20;81.70
7232;DHT22;3657;49.630;11.018;2023-04-05T11:32:16;11.20;87.40
7232;DHT22;3657;49.630;11.018;2023-04-05T11:34:43;11.40;83.60
7232;DHT22;3657;49.630;11.018;2023-04-05T11:37:10;11.30;77.40
7232;DHT22;3657;49.630;11.018;2023-04-05T11:39:37;11.20;92.70
7232;DHT22;3657;49.630;11.018;2023-04-05T11:42:08;11.10;94.00
7232;DHT22;3657;49.630;11.018;2023-04-05T11:44:44;11.30;97.40
7232;DHT22;3657;49.630;11.018;2023-04-05T11:47:13;11.40;98.60
7232;DHT22;3657;49.630;11.018;2023-04-05T11:49:42;11.60;98.40
7232;DHT22;3657;49.630;11.018;2023-04-05T11:52:13;11.60;94.80
7232;DHT22;3657;49.630;11.018;2023-04-05T11:54:41;11.50;89.50
7232;DHT22;3657;49.630;11.018;2023-04-05T11:57:12;11.60;97.60
7232;DHT22;3657;49.630;11.018;2023-04-05T11:59:39;11.80;98.10
7232;DHT22;3657;49.630;11.018;2023-04-05T12:02:05;12.00;99.50
7232;DHT22;3657;49.630;11.018;2023-04-05T12:04:35;12.10;98.00
7232;DHT22;3657;49.630;11.018;2023-04-05T12:07:13;12.10;94.80
7232;DHT22;3657;49.630;11.018;2023-04-05T12:10:00;11.90;98.10
7232;DHT22;3657;49.630;11.018;2023-04-05T12:12:28;12.10;97.00
7232;DHT22;3657;49.630;11.018;2023-04-05T12:14:58;12.10;97.50
7232;DHT22;3657;49.630;11.018;2023-04-05T12:17:40;11.90;98.70
7232;DHT22;3657;49.630;11.018;2023-04-05T12:20:09;11.80;96.70
7232;DHT22;3657;49.630;11.018;2023-04-05T12:22:37;11.60;96.90
7232;DHT22;3657;49.630;11.018;2023-04-05T12:25:04;11.70;98.30
7232;DHT22;3657;49.630;11.018;2023-04-05T12:27:31;11.90;98.90
7232;DHT22;3657;49.630;11.018;2023-04-05T12:30:08;12.00;94.40
7232;DHT22;3657;49.630;11.018;2023-04-05T12:32:39;12.20;99.10
7232;DHT22;3657;49.630;11.018;2023-04-05T12:35:10;12.40;99.90
7232;DHT22;3657;49.630;11.018;2023-04-05T12:37:38;12.60;99.90
7232;DHT22;3657;49.630;11.018;2023-04-05T12:40:06;12.70;99.20
7232;DHT22;3657;49.630;11.018;2023-04-05T12:42:34;12.80;99.90
7232;DHT22;3657;49.630;11.018;2023-04-05T12:45:02;12.80;99.20
7232;DHT22;3657;49.630;11.018;2023-04-05T12:47:29;12.70;98.00
7232;DHT22;3657;49.630;11.018;2023-04-05T12:49:57;12.60;96.60
7232;DHT22;3657;49.630;11.018;2023-04-05T12:52:36;12.50;89.50
7232;DHT22;3657;49.630;11.018;2023-04-05T12:55:03;12.50;98.90
7232;DHT22;3657;49.630;11.018;2023-04-05T12:57:30;12.70;99.10
7232;DHT22;3657;49.630;11.018;2023-04-05T12:59:57;12.90;99.50
7232;DHT22;3657;49.630;11.018;2023-04-05T13:02:24;13.40;99.60
7232;DHT22;3657;49.630;11.018;2023-04-05T13:04:51;13.60;98.10
7232;DHT22;3657;49.630;11.018;2023-04-05T13:07:18;13.90;99.40
7232;DHT22;3657;49.630;11.018;2023-04-05T13:09:46;14.00;99.50
7232;DHT22;3657;49.630;11.018;2023-04-05T13:12:13;14.30;99.70
7232;DHT22;3657;49.630;11.018;2023-04-05T13:14:39;14.50;99.70
7232;DHT22;3657;49.630;11.018;2023-04-05T13:17:06;15.10;99.50
7232;DHT22;3657;49.630;11.018;2023-04-05T13:19:32;15.30;98.90
7232;DHT22;3657;49.630;11.018;2023-04-05T13:21:59;15.40;99.20
7232;DHT22;3657;49.630;11.018;2023-04-05T13:24:26;15.10;70.30
7232;DHT22;3657;49.630;11.018;2023-04-05T13:26:54;15.10;99.60
7232;DHT22;3657;49.630;11.018;2023-04-05T13:29:20;15.10;95.80
7232;DHT22;3657;49.630;11.018;2023-04-05T13:31:47;15.00;98.30
7232;DHT22;3657;49.630;11.018;2023-04-05T13:34:14;15.00;97.20
7232;DHT22;3657;49.630;11.018;2023-04-05T13:36:40;14.70;94.20
7232;DHT22;3657;49.630;11.018;2023-04-05T13:39:07;14.20;95.30
7232;DHT22;3657;49.630;11.018;2023-04-05T13:41:34;13.90;96.60
7232;DHT22;3657;49.630;11.018;2023-04-05T13:44:02;14.10;93.90
7232;DHT22;3657;49.630;11.018;2023-04-05T13:46:28;14.00;98.00
7232;DHT22;3657;49.630;11.018;2023-04-05T13:48:55;14.30;98.40
7232;DHT22;3657;49.630;11.018;2023-04-05T13:51:22;14.60;98.20
7232;DHT22;3657;49.630;11.018;2023-04-05T13:53:49;14.70;98.90
7232;DHT22;3657;49.630;11.018;2023-04-05T13:56:15;14.90;98.80
7232;DHT22;3657;49.630;11.018;2023-04-05T13:58:42;15.00;98.10
7232;DHT22;3657;49.630;11.018;2023-04-05T14:01:10;15.20;98.70
7232;DHT22;3657;49.630;11.018;2023-04-05T14:03:37;15.30;98.90
7232;DHT22;3657;49.630;11.018;2023-04-05T14:06:03;15.30;98.10
7232;DHT22;3657;49.630;11.018;2023-04-05T14:08:31;15.10;97.90
7232;DHT22;3657;49.630;11.018;2023-04-05T14:10:58;14.90;97.00
7232;DHT22;3657;49.630;11.018;2023-04-05T14:13:24;14.70;93.70
7232;DHT22;3657;49.630;11.018;2023-04-05T14:15:51;14.60;97.00
7232;DHT22;3657;49.630;11.018;2023-04-05T14:18:19;14.80;98.00
7232;DHT22;3657;49.630;11.018;2023-04-05T14:20:46;14.90;97.40
7232;DHT22;3657;49.630;11.018;2023-04-05T14:23:13;14.80;95.90
7232;DHT22;3657;49.630;11.018;2023-04-05T14:25:39;14.70;96.90
7232;DHT22;3657;49.630;11.018;2023-04-05T14:28:06;14.80;97.70
7232;DHT22;3657;49.630;11.018;2023-04-05T14:30:33;14.70;96.50
7232;DHT22;3657;49.630;11.018;2023-04-05T14:32:59;14.50;96.30
7232;DHT22;3657;49.630;11.018;2023-04-05T14:35:27;14.40;95.30
7232;DHT22;3657;49.630;11.018;2023-04-05T14:37:54;14.10;95.20
7232;DHT22;3657;49.630;11.018;2023-04-05T14:40:21;14.20;96.30
7232;DHT22;3657;49.630;11.018;2023-04-05T14:42:47;14.00;90.90
7232;DHT22;3657;49.630;11.018;2023-04-05T14:45:14;14.20;96.60
7232;DHT22;3657;49.630;11.018;2023-04-05T14:47:40;14.50;96.80
7232;DHT22;3657;49.630;11.018;2023-04-05T14:50:08;14.60;86.60
7232;DHT22;3657;49.630;11.018;2023-04-05T14:52:36;14.60;96.50
7232;DHT22;3657;49.630;11.018;2023-04-05T14:55:04;14.50;96.30
7232;DHT22;3657;49.630;11.018;2023-04-05T14:57:31;14.00;92.30
7232;DHT22;3657;49.630;11.018;2023-04-05T14:59:57;13.90;95.00
7232;DHT22;3657;49.630;11.018;2023-04-05T15:02:24;13.30;78.40
7232;DHT22;3657;49.630;11.018;2023-04-05T15:04:52;13.20;94.20
7232;DHT22;3657;49.630;11.018;2023-04-05T15:07:19;13.30;96.20
7232;DHT22;3657;49.630;11.018;2023-04-05T15:09:47;13.70;97.20
7232;DHT22;3657;49.630;11.018;2023-04-05T15:12:13;13.90;95.10
7232;DHT22;3657;49.630;11.018;2023-04-05T15:14:40;14.20;96.70
7232;DHT22;3657;49.630;11.018;2023-04-05T15:17:07;14.30;96.90
7232;DHT22;3657;49.630;11.018;2023-04-05T15:19:33;14.40;97.30
7232;DHT22;3657;49.630;11.018;2023-04-05T15:22:00;14.50;96.60
7232;DHT22;3657;49.630;11.018;2023-04-05T15:24:27;14.40;96.60
7232;DHT22;3657;49.630;11.018;2023-04-05T15:26:55;14.50;96.40
7232;DHT22;3657;49.630;11.018;2023-04-05T15:29:26;14.50;96.60
7232;DHT22;3657;49.630;11.018;2023-04-05T15:31:53;14.50;96.70
7232;DHT22;3657;49.630;11.018;2023-04-05T15:34:20;14.50;96.70
7232;DHT22;3657;49.630;11.018;2023-04-05T15:36:47;14.50;96.80
7232;DHT22;3657;49.630;11.018;2023-04-05T15:39:14;14.50;97.00
7232;DHT22;3657;49.630;11.018;2023-04-05T15:41:40;14.40;96.90
7232;DHT22;3657;49.630;11.018;2023-04-05T15:44:08;14.40;96.40
7232;DHT22;3657;49.630;11.018;2023-04-05T15:46:35;14.30;96.60
7232;DHT22;3657;49.630;11.018;2023-04-05T15:49:02;14.30;96.00
7232;DHT22;3657;49.630;11.018;2023-04-05T15:51:29;14.20;95.60
7232;DHT22;3657;49.630;11.018;2023-04-05T15:53:56;14.20;95.50
7232;DHT22;3657;49.630;11.018;2023-04-05T15:56:22;14.20;95.30
7232;DHT22;3657;49.630;11.018;2023-04-05T15:58:49;14.10;95.30
7232;DHT22;3657;49.630;11.018;2023-04-05T16:01:17;14.10;95.90
7232;DHT22;3657;49.630;11.018;2023-04-05T16:03:44;14.00;95.90
7232;DHT22;3657;49.630;11.018;2023-04-05T16:06:11;14.00;95.80
7232;DHT22;3657;49.630;11.018;2023-04-05T16:08:37;13.90;95.70